createdAt,value
2019-05-29T00:03:10.503Z,12.30
2019-05-29T00:06:34.640Z,12.30
2019-05-29T00:09:58.501Z,12.40
2019-05-29T00:13:22.345Z,12.50
2019-05-29T00:16:46.164Z,12.50
2019-05-29T00:20:10.589Z,12.50
2019-05-29T00:23:34.353Z,12.50
2019-05-29T00:26:58.272Z,12.50
2019-05-29T00:30:21.967Z,12.50
2019-05-29T00:33:45.743Z,12.50
2019-05-29T00:37:10.487Z,12.40
2019-05-29T00:40:34.468Z,12.20
2019-05-29T00:43:58.400Z,12.20
2019-05-29T00:47:22.090Z,12.10
2019-05-29T00:50:46.055Z,12.00
2019-05-29T00:54:10.298Z,12.00
2019-05-29T00:57:34.327Z,12.00
2019-05-29T01:00:58.171Z,12.00
2019-05-29T01:04:22.186Z,11.90
2019-05-29T01:07:46.130Z,11.90
2019-05-29T01:11:10.617Z,11.90
2019-05-29T01:14:47.254Z,12.10
2019-05-29T01:18:00.245Z,12.20
2019-05-29T01:21:24.118Z,12.30
2019-05-29T01:24:48.057Z,12.40
2019-05-29T01:28:12.678Z,12.40
2019-05-29T01:31:36.584Z,12.50
2019-05-29T01:35:00.366Z,12.60
2019-05-29T01:38:24.126Z,12.60
2019-05-29T01:41:48.014Z,12.70
2019-05-29T01:45:12.095Z,12.80
2019-05-29T01:48:36.058Z,12.90
2019-05-29T01:51:59.975Z,13.00
2019-05-29T01:55:23.921Z,13.10
2019-05-29T01:58:47.680Z,13.10
2019-05-29T02:02:11.652Z,13.00
2019-05-29T02:05:35.542Z,12.60
2019-05-29T02:08:59.892Z,12.60
2019-05-29T02:12:24.427Z,12.70
2019-05-29T02:15:48.677Z,12.70
2019-05-29T02:19:12.566Z,12.80
2019-05-29T02:22:36.437Z,12.90
2019-05-29T02:26:00.353Z,12.90
2019-05-29T02:29:24.889Z,13.00
2019-05-29T02:32:48.798Z,13.10
2019-05-29T02:36:12.716Z,13.10
2019-05-29T02:39:36.415Z,13.10
2019-05-29T02:43:00.266Z,13.20
2019-05-29T02:46:25.919Z,13.30
2019-05-29T02:49:49.751Z,13.40
2019-05-29T02:53:13.505Z,13.50
2019-05-29T02:56:37.365Z,13.50
2019-05-29T03:00:01.159Z,13.60
2019-05-29T03:03:26.496Z,13.70
2019-05-29T03:06:51.227Z,13.70
2019-05-29T03:10:15.284Z,13.70
2019-05-29T03:13:39.278Z,13.70
2019-05-29T03:17:03.069Z,13.70
2019-05-29T03:20:28.181Z,13.70
2019-05-29T03:23:52.040Z,13.70
2019-05-29T03:27:16.213Z,13.80
2019-05-29T03:30:45.805Z,13.70
2019-05-29T03:34:05.551Z,13.70
2019-05-29T03:37:30.330Z,13.70
2019-05-29T03:40:54.354Z,13.70
2019-05-29T03:44:18.193Z,13.70
2019-05-29T03:47:42.258Z,13.60
2019-05-29T03:51:06.151Z,13.40
2019-05-29T03:54:30.926Z,13.40
2019-05-29T03:57:55.358Z,13.30
2019-05-29T04:01:19.324Z,13.10
2019-05-29T04:04:43.060Z,13.00
2019-05-29T04:08:06.997Z,12.90
2019-05-29T04:11:31.467Z,12.80
2019-05-29T04:14:55.329Z,12.70
2019-05-29T04:18:20.831Z,12.60
2019-05-29T04:21:46.871Z,12.60
2019-05-29T04:25:10.792Z,12.50
2019-05-29T04:28:35.323Z,12.60
2019-05-29T04:32:00.107Z,12.50
2019-05-29T04:35:24.011Z,12.50
2019-05-29T04:38:47.884Z,12.40
2019-05-29T04:42:11.730Z,12.40
2019-05-29T04:45:39.191Z,12.40
2019-05-29T04:49:01.452Z,12.40
2019-05-29T04:52:25.249Z,12.40
2019-05-29T04:55:49.083Z,12.40
2019-05-29T04:59:12.942Z,12.30
2019-05-29T05:02:37.297Z,12.30
2019-05-29T05:06:01.565Z,12.30
2019-05-29T05:09:25.398Z,12.30
2019-05-29T05:12:49.586Z,12.30
2019-05-29T05:16:13.945Z,12.30
2019-05-29T05:19:38.093Z,12.30
2019-05-29T05:23:01.868Z,12.40
2019-05-29T05:26:25.648Z,12.30
2019-05-29T05:29:49.367Z,12.40
2019-05-29T05:33:13.337Z,12.40
2019-05-29T05:36:37.123Z,12.50
2019-05-29T05:40:00.990Z,12.60
2019-05-29T05:43:25.215Z,12.70
2019-05-29T05:46:48.965Z,12.80
2019-05-29T05:50:13.402Z,12.80
2019-05-29T05:53:41.553Z,12.90
2019-05-29T05:57:05.690Z,12.90
2019-05-29T06:00:33.678Z,13.00
2019-05-29T06:03:57.798Z,13.30
2019-05-29T06:07:21.704Z,13.30
2019-05-29T06:10:45.667Z,13.20
2019-05-29T06:14:10.171Z,13.10
2019-05-29T06:17:36.539Z,13.10
2019-05-29T06:21:00.505Z,12.90
2019-05-29T06:24:24.259Z,12.70
2019-05-29T06:27:48.163Z,12.40
2019-05-29T06:31:11.996Z,12.30
2019-05-29T06:34:35.949Z,12.20
2019-05-29T06:37:59.771Z,12.20
2019-05-29T06:41:23.638Z,12.20
2019-05-29T06:44:49.446Z,12.40
2019-05-29T06:48:15.916Z,12.30
2019-05-29T06:51:39.758Z,12.40
2019-05-29T06:55:03.882Z,12.40
2019-05-29T06:58:27.690Z,12.40
2019-05-29T07:01:51.636Z,12.70
2019-05-29T07:05:15.423Z,12.90
2019-05-29T07:08:44.182Z,12.90
2019-05-29T07:12:04.783Z,12.70
2019-05-29T07:15:28.641Z,12.50
2019-05-29T07:19:24.169Z,12.60
2019-05-29T07:22:18.246Z,12.40
2019-05-29T07:25:42.964Z,12.40
2019-05-29T07:29:08.645Z,12.40
2019-05-29T07:32:32.312Z,12.60
2019-05-29T07:35:56.280Z,12.60
2019-05-29T07:39:20.273Z,12.80
2019-05-29T07:42:49.772Z,12.90
2019-05-29T07:46:09.691Z,12.70
2019-05-29T07:49:40.859Z,12.70
2019-05-29T07:53:02.125Z,12.70
2019-05-29T07:56:25.931Z,12.70
2019-05-29T07:59:49.740Z,12.60
2019-05-29T08:03:13.822Z,12.70
2019-05-29T08:06:38.860Z,13.00
2019-05-29T08:10:05.211Z,13.20
2019-05-29T08:13:29.031Z,13.30
2019-05-29T08:16:52.853Z,13.10
2019-05-29T08:20:16.921Z,13.00
2019-05-29T08:23:40.763Z,13.20
2019-05-29T08:27:04.770Z,13.50
2019-05-29T08:30:28.664Z,14.00
2019-05-29T08:33:52.821Z,14.60
2019-05-29T08:37:16.726Z,15.20
2019-05-29T08:40:41.032Z,15.90
2019-05-29T08:44:05.181Z,16.40
2019-05-29T08:47:29.126Z,16.70
2019-05-29T08:50:53.098Z,17.40
2019-05-29T08:54:23.918Z,18.10
2019-05-29T08:57:44.808Z,18.40
2019-05-29T09:01:08.946Z,17.90
2019-05-29T09:04:32.884Z,16.90
2019-05-29T09:07:56.706Z,16.60
2019-05-29T09:11:20.632Z,16.40
2019-05-29T09:14:44.400Z,15.90
2019-05-29T09:18:09.344Z,15.80
2019-05-29T09:21:33.176Z,15.60
2019-05-29T09:24:57.038Z,15.80
2019-05-29T09:28:20.847Z,16.70
2019-05-29T09:31:45.134Z,15.80
2019-05-29T09:35:09.203Z,15.10
2019-05-29T09:38:32.955Z,15.20
2019-05-29T09:41:56.793Z,15.40
2019-05-29T09:45:21.573Z,15.40
2019-05-29T09:48:49.647Z,15.40
2019-05-29T09:52:12.762Z,15.80
2019-05-29T09:55:36.594Z,15.30
2019-05-29T09:59:01.851Z,15.00
2019-05-29T10:02:26.023Z,15.30
2019-05-29T10:05:49.788Z,15.50
2019-05-29T10:09:13.822Z,15.20
2019-05-29T10:12:37.977Z,15.00
2019-05-29T10:16:02.900Z,14.60
2019-05-29T10:19:27.083Z,14.30
2019-05-29T10:22:50.939Z,14.30
2019-05-29T10:26:14.788Z,14.30
2019-05-29T10:29:38.556Z,14.20
2019-05-29T10:33:02.543Z,14.60
2019-05-29T10:36:26.509Z,15.10
2019-05-29T10:39:50.957Z,15.50
2019-05-29T10:43:14.846Z,15.40
2019-05-29T10:46:38.656Z,15.60
2019-05-29T10:50:02.867Z,15.60
2019-05-29T10:53:26.836Z,15.20
2019-05-29T10:56:50.888Z,14.70
2019-05-29T11:00:16.638Z,15.30
2019-05-29T11:03:40.469Z,15.70
2019-05-29T11:07:04.391Z,17.00
2019-05-29T11:10:28.109Z,16.10
2019-05-29T11:13:52.840Z,15.40
2019-05-29T11:17:16.856Z,15.10
2019-05-29T11:20:40.813Z,14.60
2019-05-29T11:24:05.319Z,14.30
2019-05-29T11:27:29.421Z,13.90
2019-05-29T11:30:53.807Z,13.70
2019-05-29T11:34:23.245Z,13.50
2019-05-29T11:37:47.094Z,13.30
2019-05-29T11:41:25.061Z,13.20
2019-05-29T11:44:38.146Z,13.40
2019-05-29T11:48:04.847Z,13.20
2019-05-29T11:51:27.521Z,13.20
2019-05-29T11:54:55.543Z,13.20
2019-05-29T11:58:30.519Z,13.20
2019-05-29T12:01:50.240Z,13.40
2019-05-29T12:05:09.715Z,13.10
2019-05-29T12:08:33.577Z,13.10
2019-05-29T12:11:58.177Z,13.00
2019-05-29T12:15:22.711Z,13.20
2019-05-29T12:18:48.085Z,13.30
2019-05-29T12:22:12.208Z,13.50
2019-05-29T12:25:37.517Z,13.30
2019-05-29T12:29:09.083Z,13.20
2019-05-29T12:32:27.002Z,13.40
2019-05-29T12:35:50.902Z,13.40
2019-05-29T12:39:14.710Z,13.60
2019-05-29T12:42:38.525Z,13.70
2019-05-29T12:46:02.371Z,13.90
2019-05-29T12:49:26.403Z,13.60
2019-05-29T12:52:50.616Z,13.50
2019-05-29T12:56:14.581Z,13.70
2019-05-29T12:59:40.180Z,13.60
2019-05-29T13:03:05.260Z,13.40
2019-05-29T13:06:29.319Z,13.40
2019-05-29T13:09:54.221Z,13.40
2019-05-29T13:13:18.621Z,13.60
2019-05-29T13:16:45.766Z,13.70
2019-05-29T13:20:20.951Z,13.50
2019-05-29T13:23:44.997Z,13.50
2019-05-29T13:27:05.973Z,13.60
2019-05-29T13:30:28.897Z,13.70
2019-05-29T13:33:52.760Z,13.70
2019-05-29T13:37:16.634Z,13.90
2019-05-29T13:40:40.825Z,14.50
2019-05-29T13:44:04.984Z,15.00
2019-05-29T13:47:32.094Z,15.70
2019-05-29T13:50:56.998Z,15.70
2019-05-29T13:54:23.206Z,16.00
2019-05-29T13:57:47.088Z,16.10
2019-05-29T14:01:18.269Z,16.20
2019-05-29T14:04:41.965Z,16.50
2019-05-29T14:08:07.117Z,16.30
2019-05-29T14:11:31.733Z,16.30
2019-05-29T14:14:57.104Z,15.70
2019-05-29T14:18:21.273Z,16.40
2019-05-29T14:21:45.315Z,17.60
2019-05-29T14:25:11.521Z,18.10
2019-05-29T14:28:35.606Z,17.60
2019-05-29T14:32:00.838Z,16.80
2019-05-29T14:35:25.501Z,16.90
2019-05-29T14:38:51.010Z,17.10
2019-05-29T14:42:14.810Z,17.40
2019-05-29T14:45:38.937Z,17.30
2019-05-29T14:49:04.233Z,17.00
2019-05-29T14:52:28.228Z,17.10
2019-05-29T14:55:52.074Z,17.50
2019-05-29T14:59:16.054Z,17.30
2019-05-29T15:02:39.806Z,17.20
2019-05-29T15:06:05.534Z,17.30
2019-05-29T15:09:29.368Z,16.80
2019-05-29T15:12:57.588Z,16.80
2019-05-29T15:16:19.259Z,16.80
2019-05-29T15:19:42.996Z,16.80
2019-05-29T15:23:07.586Z,16.50
2019-05-29T15:26:31.766Z,16.40
2019-05-29T15:29:55.631Z,16.60
2019-05-29T15:33:19.691Z,16.30
2019-05-29T15:36:43.597Z,16.40
2019-05-29T15:40:10.937Z,16.20
2019-05-29T15:43:34.890Z,16.30
2019-05-29T15:46:58.799Z,16.50
2019-05-29T15:50:22.525Z,16.80
2019-05-29T15:53:46.331Z,16.80
2019-05-29T15:57:10.996Z,16.60
2019-05-29T16:00:35.429Z,16.50
2019-05-29T16:03:59.689Z,16.60
2019-05-29T16:07:24.020Z,16.40
2019-05-29T16:10:47.832Z,16.10
2019-05-29T16:14:12.911Z,16.00
2019-05-29T16:17:37.156Z,16.10
2019-05-29T16:21:00.956Z,15.90
2019-05-29T16:24:24.765Z,15.70
2019-05-29T16:27:48.907Z,15.50
2019-05-29T16:31:12.718Z,15.40
2019-05-29T16:34:37.366Z,15.30
2019-05-29T16:38:02.288Z,15.20
2019-05-29T16:41:26.739Z,15.00
2019-05-29T16:44:50.923Z,14.70
2019-05-29T16:48:18.916Z,14.70
2019-05-29T16:51:42.596Z,14.60
2019-05-29T16:55:07.620Z,14.50
2019-05-29T16:58:31.575Z,14.50
2019-05-29T17:01:55.443Z,14.30
2019-05-29T17:05:20.493Z,14.10
2019-05-29T17:08:45.555Z,14.00
2019-05-29T17:12:09.314Z,13.90
2019-05-29T17:15:33.638Z,13.80
2019-05-29T17:18:58.136Z,13.70
2019-05-29T17:22:22.830Z,13.60
2019-05-29T17:25:47.156Z,13.50
2019-05-29T17:29:11.336Z,13.40
2019-05-29T17:32:35.460Z,13.40
2019-05-29T17:36:00.135Z,13.40
2019-05-29T17:39:25.195Z,13.30
2019-05-29T17:42:50.195Z,13.30
2019-05-29T17:46:15.321Z,13.20
2019-05-29T17:49:39.820Z,13.10
2019-05-29T17:53:03.853Z,13.10
2019-05-29T17:56:36.259Z,13.10
2019-05-29T17:59:53.876Z,13.10
2019-05-29T18:03:20.112Z,13.00
2019-05-29T18:06:47.453Z,12.90
2019-05-29T18:10:20.700Z,12.90
2019-05-29T18:13:44.310Z,12.90
2019-05-29T18:17:08.214Z,12.80
2019-05-29T18:20:32.193Z,12.80
2019-05-29T18:23:56.072Z,12.80
2019-05-29T18:27:21.780Z,12.70
2019-05-29T18:30:46.179Z,12.70
2019-05-29T18:34:10.051Z,12.60
2019-05-29T18:37:39.860Z,12.50
2019-05-29T18:41:20.190Z,12.40
2019-05-29T18:44:46.262Z,12.30
2019-05-29T18:48:12.268Z,12.30
2019-05-29T18:51:38.529Z,12.30
2019-05-29T18:55:05.129Z,12.30
2019-05-29T18:58:30.713Z,12.20
2019-05-29T19:01:55.015Z,12.20
2019-05-29T19:05:19.672Z,12.10
2019-05-29T19:08:43.726Z,12.10
2019-05-29T19:12:08.730Z,12.10
2019-05-29T19:15:33.595Z,12.00
2019-05-29T19:18:58.089Z,12.00
2019-05-29T19:22:22.278Z,12.00
2019-05-29T19:25:46.350Z,12.00
2019-05-29T19:29:13.628Z,12.00
2019-05-29T19:32:37.594Z,12.00
2019-05-29T19:36:02.219Z,12.00
2019-05-29T19:39:26.093Z,11.90
2019-05-29T19:42:53.933Z,11.90
2019-05-29T19:46:15.997Z,11.90
2019-05-29T19:49:39.936Z,11.80
2019-05-29T19:53:03.845Z,11.80
2019-05-29T19:56:27.750Z,11.80
2019-05-29T19:59:51.525Z,11.80
2019-05-29T20:03:15.533Z,11.80
2019-05-29T20:06:39.571Z,11.80
2019-05-29T20:10:03.470Z,11.80
2019-05-29T20:13:27.659Z,11.80
2019-05-29T20:16:52.339Z,11.80
2019-05-29T20:20:16.548Z,11.80
2019-05-29T20:23:40.766Z,11.70
2019-05-29T20:27:05.325Z,11.70
2019-05-29T20:30:32.329Z,11.70
2019-05-29T20:33:56.869Z,11.70
2019-05-29T20:37:20.643Z,11.70
2019-05-29T20:40:44.646Z,11.70
2019-05-29T20:44:09.957Z,11.70
2019-05-29T20:47:35.580Z,11.60
2019-05-29T20:50:59.536Z,11.60
2019-05-29T20:54:23.442Z,11.60
2019-05-29T20:57:47.366Z,11.60
2019-05-29T21:01:11.951Z,11.60
2019-05-29T21:04:36.339Z,11.60
2019-05-29T21:08:00.854Z,11.60
2019-05-29T21:11:24.878Z,11.60
2019-05-29T21:14:49.123Z,11.60
2019-05-29T21:18:12.989Z,11.50
2019-05-29T21:21:38.287Z,11.60
2019-05-29T21:25:07.575Z,11.60
2019-05-29T21:28:39.720Z,11.60
2019-05-29T21:31:53.451Z,11.50
2019-05-29T21:35:17.261Z,11.60
2019-05-29T21:38:42.220Z,11.60
2019-05-29T21:42:06.299Z,11.50
2019-05-29T21:45:30.271Z,11.50
2019-05-29T21:48:54.015Z,11.50
2019-05-29T21:52:17.816Z,11.50
2019-05-29T21:55:41.700Z,11.50
2019-05-29T21:59:05.930Z,11.40
2019-05-29T22:02:29.732Z,11.40
2019-05-29T22:05:53.623Z,11.40
2019-05-29T22:09:17.483Z,11.40
2019-05-29T22:12:41.317Z,11.40
2019-05-29T22:16:05.130Z,11.40
2019-05-29T22:19:29.396Z,11.40
2019-05-29T22:22:53.675Z,11.40
2019-05-29T22:26:17.530Z,11.40
2019-05-29T22:29:41.268Z,11.40
2019-05-29T22:33:05.092Z,11.30
2019-05-29T22:36:28.993Z,11.30
2019-05-29T22:39:53.600Z,11.30
2019-05-29T22:43:17.608Z,11.30
2019-05-29T22:46:41.556Z,11.30
2019-05-29T22:50:08.631Z,11.30
2019-05-29T22:53:32.623Z,11.30
2019-05-29T22:56:56.503Z,11.20
2019-05-29T23:00:21.383Z,11.20
2019-05-29T23:03:45.558Z,11.20
2019-05-29T23:07:09.478Z,11.20
2019-05-29T23:10:33.303Z,11.10
2019-05-29T23:13:58.269Z,11.10
2019-05-29T23:17:22.205Z,11.10
2019-05-29T23:20:46.035Z,11.00
2019-05-29T23:24:09.866Z,11.00
2019-05-29T23:27:33.824Z,11.00
2019-05-29T23:30:58.806Z,10.90
2019-05-29T23:34:22.809Z,10.90
2019-05-29T23:37:46.703Z,10.90
2019-05-29T23:41:10.516Z,10.80
2019-05-29T23:44:34.408Z,10.80
2019-05-29T23:47:59.533Z,10.80
2019-05-29T23:51:23.488Z,10.70
2019-05-29T23:54:47.373Z,10.70
2019-05-29T23:58:11.159Z,10.60
